sensor_id;sensor_type;location;lat;lon;timestamp;P1;durP1;ratioP1;P2;durP2;ratioP2
53052;SDS011;38934;52.690;6.184;2023-02-28T00:01:30;7.30;;;4.40;;
53052;SDS011;38934;52.690;6.184;2023-02-28T00:03:56;6.57;;;4.18;;
53052;SDS011;38934;52.690;6.184;2023-02-28T00:06:21;10.15;;;4.40;;
53052;SDS011;38934;52.690;6.184;2023-02-28T00:08:47;6.43;;;3.72;;
53052;SDS011;38934;52.690;6.184;2023-02-28T00:11:13;10.13;;;4.13;;
53052;SDS011;38934;52.690;6.184;2023-02-28T00:13:41;7.80;;;4.03;;
53052;SDS011;38934;52.690;6.184;2023-02-28T00:16:12;8.88;;;4.30;;
53052;SDS011;38934;52.690;6.184;2023-02-28T00:18:45;7.88;;;4.47;;
53052;SDS011;38934;52.690;6.184;2023-02-28T00:21:12;7.53;;;4.07;;
53052;SDS011;38934;52.690;6.184;2023-02-28T00:23:38;7.60;;;3.65;;
53052;SDS011;38934;52.690;6.184;2023-02-28T00:26:03;8.77;;;4.45;;
53052;SDS011;38934;52.690;6.184;2023-02-28T00:28:29;9.63;;;5.53;;
53052;SDS011;38934;52.690;6.184;2023-02-28T00:30:55;7.47;;;4.22;;
53052;SDS011;38934;52.690;6.184;2023-02-28T00:33:22;8.70;;;4.20;;
53052;SDS011;38934;52.690;6.184;2023-02-28T00:35:48;6.60;;;3.88;;
53052;SDS011;38934;52.690;6.184;2023-02-28T00:38:14;6.03;;;4.30;;
53052;SDS011;38934;52.690;6.184;2023-02-28T00:40:40;7.47;;;3.78;;
53052;SDS011;38934;52.690;6.184;2023-02-28T00:43:06;6.80;;;3.95;;
53052;SDS011;38934;52.690;6.184;2023-02-28T00:45:31;6.40;;;3.90;;
53052;SDS011;38934;52.690;6.184;2023-02-28T00:47:57;9.63;;;3.60;;
53052;SDS011;38934;52.690;6.184;2023-02-28T00:50:23;10.43;;;4.75;;
53052;SDS011;38934;52.690;6.184;2023-02-28T00:52:48;6.32;;;4.13;;
53052;SDS011;38934;52.690;6.184;2023-02-28T00:55:14;8.15;;;3.85;;
53052;SDS011;38934;52.690;6.184;2023-02-28T00:57:39;10.98;;;4.07;;
53052;SDS011;38934;52.690;6.184;2023-02-28T01:00:05;10.10;;;3.70;;
53052;SDS011;38934;52.690;6.184;2023-02-28T01:02:32;6.15;;;4.07;;
53052;SDS011;38934;52.690;6.184;2023-02-28T01:04:57;9.95;;;4.05;;
53052;SDS011;38934;52.690;6.184;2023-02-28T01:07:23;8.93;;;4.43;;
53052;SDS011;38934;52.690;6.184;2023-02-28T01:09:49;14.27;;;6.25;;
53052;SDS011;38934;52.690;6.184;2023-02-28T01:12:14;17.20;;;8.70;;
53052;SDS011;38934;52.690;6.184;2023-02-28T01:14:40;18.33;;;8.23;;
53052;SDS011;38934;52.690;6.184;2023-02-28T01:17:06;17.23;;;7.80;;
53052;SDS011;38934;52.690;6.184;2023-02-28T01:19:32;14.27;;;6.47;;
53052;SDS011;38934;52.690;6.184;2023-02-28T01:22:00;12.40;;;7.60;;
53052;SDS011;38934;52.690;6.184;2023-02-28T01:24:30;13.48;;;6.72;;
53052;SDS011;38934;52.690;6.184;2023-02-28T01:26:55;9.13;;;4.95;;
53052;SDS011;38934;52.690;6.184;2023-02-28T01:29:21;10.45;;;4.63;;
53052;SDS011;38934;52.690;6.184;2023-02-28T01:31:47;8.25;;;4.10;;
53052;SDS011;38934;52.690;6.184;2023-02-28T01:34:12;9.30;;;4.45;;
53052;SDS011;38934;52.690;6.184;2023-02-28T01:36:38;8.68;;;4.32;;
53052;SDS011;38934;52.690;6.184;2023-02-28T01:39:04;7.57;;;4.28;;
53052;SDS011;38934;52.690;6.184;2023-02-28T01:41:30;5.82;;;4.03;;
53052;SDS011;38934;52.690;6.184;2023-02-28T01:44:05;8.73;;;4.28;;
53052;SDS011;38934;52.690;6.184;2023-02-28T01:46:51;5.82;;;4.45;;
53052;SDS011;38934;52.690;6.184;2023-02-28T01:49:16;6.80;;;4.45;;
53052;SDS011;38934;52.690;6.184;2023-02-28T01:51:44;8.73;;;4.10;;
53052;SDS011;38934;52.690;6.184;2023-02-28T01:54:36;7.93;;;4.60;;
53052;SDS011;38934;52.690;6.184;2023-02-28T01:57:03;8.38;;;4.40;;
53052;SDS011;38934;52.690;6.184;2023-02-28T02:04:33;8.57;;;5.38;;
53052;SDS011;38934;52.690;6.184;2023-02-28T02:07:03;11.90;;;5.68;;
53052;SDS011;38934;52.690;6.184;2023-02-28T02:09:29;5.93;;;4.13;;
53052;SDS011;38934;52.690;6.184;2023-02-28T02:11:55;8.45;;;5.03;;
53052;SDS011;38934;52.690;6.184;2023-02-28T02:31:37;8.65;;;5.43;;
53052;SDS011;38934;52.690;6.184;2023-02-28T02:34:24;9.60;;;5.60;;
53052;SDS011;38934;52.690;6.184;2023-02-28T02:42:41;8.50;;;5.07;;
53052;SDS011;38934;52.690;6.184;2023-02-28T02:45:11;6.38;;;4.70;;
53052;SDS011;38934;52.690;6.184;2023-02-28T02:47:44;8.07;;;5.05;;
53052;SDS011;38934;52.690;6.184;2023-02-28T02:50:14;8.38;;;4.78;;
53052;SDS011;38934;52.690;6.184;2023-02-28T02:52:50;9.55;;;4.80;;
53052;SDS011;38934;52.690;6.184;2023-02-28T02:55:19;8.57;;;5.38;;
53052;SDS011;38934;52.690;6.184;2023-02-28T03:00:16;9.88;;;6.47;;
53052;SDS011;38934;52.690;6.184;2023-02-28T03:02:44;12.65;;;6.47;;
53052;SDS011;38934;52.690;6.184;2023-02-28T03:05:14;12.75;;;6.80;;
53052;SDS011;38934;52.690;6.184;2023-02-28T03:07:44;10.43;;;6.55;;
53052;SDS011;38934;52.690;6.184;2023-02-28T03:13:04;14.48;;;6.38;;
53052;SDS011;38934;52.690;6.184;2023-02-28T03:15:46;10.75;;;6.18;;
53052;SDS011;38934;52.690;6.184;2023-02-28T03:18:24;9.45;;;6.10;;
53052;SDS011;38934;52.690;6.184;2023-02-28T03:21:21;11.23;;;6.45;;
53052;SDS011;38934;52.690;6.184;2023-02-28T03:23:58;13.30;;;6.90;;
53052;SDS011;38934;52.690;6.184;2023-02-28T03:26:34;12.35;;;6.93;;
53052;SDS011;38934;52.690;6.184;2023-02-28T03:34:34;13.75;;;8.43;;
53052;SDS011;38934;52.690;6.184;2023-02-28T03:37:06;11.65;;;7.63;;
53052;SDS011;38934;52.690;6.184;2023-02-28T03:39:38;13.88;;;8.15;;
53052;SDS011;38934;52.690;6.184;2023-02-28T03:42:09;13.40;;;7.70;;
53052;SDS011;38934;52.690;6.184;2023-02-28T03:44:49;12.75;;;7.25;;
53052;SDS011;38934;52.690;6.184;2023-02-28T03:49:54;15.88;;;8.27;;
53052;SDS011;38934;52.690;6.184;2023-02-28T03:52:28;14.68;;;8.70;;
53052;SDS011;38934;52.690;6.184;2023-02-28T03:54:59;14.38;;;8.73;;
53052;SDS011;38934;52.690;6.184;2023-02-28T04:00:31;14.60;;;8.85;;
53052;SDS011;38934;52.690;6.184;2023-02-28T04:03:00;17.85;;;9.45;;
53052;SDS011;38934;52.690;6.184;2023-02-28T04:05:26;14.63;;;9.38;;
53052;SDS011;38934;52.690;6.184;2023-02-28T04:07:52;13.75;;;8.63;;
53052;SDS011;38934;52.690;6.184;2023-02-28T04:10:19;14.65;;;9.05;;
53052;SDS011;38934;52.690;6.184;2023-02-28T04:12:44;17.67;;;10.13;;
53052;SDS011;38934;52.690;6.184;2023-02-28T04:15:10;15.65;;;9.30;;
53052;SDS011;38934;52.690;6.184;2023-02-28T04:17:36;18.77;;;9.77;;
53052;SDS011;38934;52.690;6.184;2023-02-28T04:20:02;17.73;;;9.70;;
53052;SDS011;38934;52.690;6.184;2023-02-28T04:22:34;16.15;;;9.65;;
53052;SDS011;38934;52.690;6.184;2023-02-28T04:24:59;20.67;;;9.80;;
53052;SDS011;38934;52.690;6.184;2023-02-28T04:27:25;18.63;;;11.00;;
53052;SDS011;38934;52.690;6.184;2023-02-28T04:29:50;19.25;;;9.68;;
53052;SDS011;38934;52.690;6.184;2023-02-28T04:32:16;18.30;;;10.48;;
53052;SDS011;38934;52.690;6.184;2023-02-28T04:34:42;17.90;;;10.30;;
53052;SDS011;38934;52.690;6.184;2023-02-28T04:37:07;18.55;;;11.10;;
53052;SDS011;38934;52.690;6.184;2023-02-28T04:39:34;17.02;;;10.13;;
53052;SDS011;38934;52.690;6.184;2023-02-28T04:42:01;14.63;;;9.15;;
53052;SDS011;38934;52.690;6.184;2023-02-28T04:44:27;17.35;;;10.18;;
53052;SDS011;38934;52.690;6.184;2023-02-28T04:46:52;20.25;;;11.38;;
53052;SDS011;38934;52.690;6.184;2023-02-28T04:49:18;16.70;;;10.95;;
53052;SDS011;38934;52.690;6.184;2023-02-28T04:51:44;19.50;;;10.48;;
53052;SDS011;38934;52.690;6.184;2023-02-28T04:54:09;18.60;;;9.93;;
53052;SDS011;38934;52.690;6.184;2023-02-28T04:56:35;19.52;;;11.00;;
53052;SDS011;38934;52.690;6.184;2023-02-28T04:59:00;21.05;;;11.55;;
53052;SDS011;38934;52.690;6.184;2023-02-28T05:01:30;17.42;;;10.50;;
53052;SDS011;38934;52.690;6.184;2023-02-28T05:03:58;19.15;;;10.55;;
53052;SDS011;38934;52.690;6.184;2023-02-28T05:06:26;17.70;;;10.13;;
53052;SDS011;38934;52.690;6.184;2023-02-28T05:08:52;19.85;;;10.80;;
53052;SDS011;38934;52.690;6.184;2023-02-28T05:11:24;18.25;;;10.95;;
53052;SDS011;38934;52.690;6.184;2023-02-28T05:16:19;19.65;;;10.57;;
53052;SDS011;38934;52.690;6.184;2023-02-28T05:18:45;16.85;;;9.82;;
53052;SDS011;38934;52.690;6.184;2023-02-28T05:21:25;19.23;;;11.13;;
53052;SDS011;38934;52.690;6.184;2023-02-28T05:23:54;17.75;;;10.20;;
53052;SDS011;38934;52.690;6.184;2023-02-28T05:26:21;18.35;;;11.23;;
53052;SDS011;38934;52.690;6.184;2023-02-28T05:28:46;20.35;;;11.35;;
53052;SDS011;38934;52.690;6.184;2023-02-28T05:31:12;17.60;;;10.27;;
53052;SDS011;38934;52.690;6.184;2023-02-28T05:33:38;20.27;;;11.48;;
53052;SDS011;38934;52.690;6.184;2023-02-28T05:36:05;22.10;;;11.63;;
53052;SDS011;38934;52.690;6.184;2023-02-28T05:38:34;20.42;;;11.10;;
53052;SDS011;38934;52.690;6.184;2023-02-28T05:41:04;18.90;;;11.00;;
53052;SDS011;38934;52.690;6.184;2023-02-28T05:43:32;20.83;;;11.55;;
53052;SDS011;38934;52.690;6.184;2023-02-28T05:45:58;20.15;;;12.20;;
53052;SDS011;38934;52.690;6.184;2023-02-28T05:48:39;20.48;;;11.25;;
53052;SDS011;38934;52.690;6.184;2023-02-28T05:51:06;22.02;;;12.50;;
53052;SDS011;38934;52.690;6.184;2023-02-28T05:53:33;18.17;;;11.18;;
53052;SDS011;38934;52.690;6.184;2023-02-28T05:55:59;16.52;;;10.85;;
53052;SDS011;38934;52.690;6.184;2023-02-28T05:58:25;17.08;;;9.70;;
53052;SDS011;38934;52.690;6.184;2023-02-28T06:00:55;15.77;;;9.50;;
53052;SDS011;38934;52.690;6.184;2023-02-28T06:03:22;19.50;;;10.48;;
53052;SDS011;38934;52.690;6.184;2023-02-28T06:05:47;21.67;;;10.15;;
53052;SDS011;38934;52.690;6.184;2023-02-28T06:08:13;15.82;;;10.15;;
53052;SDS011;38934;52.690;6.184;2023-02-28T06:10:38;15.38;;;10.30;;
53052;SDS011;38934;52.690;6.184;2023-02-28T06:13:04;14.90;;;9.60;;
53052;SDS011;38934;52.690;6.184;2023-02-28T06:15:30;14.50;;;9.20;;
53052;SDS011;38934;52.690;6.184;2023-02-28T06:17:56;13.70;;;8.27;;
53052;SDS011;38934;52.690;6.184;2023-02-28T06:20:22;12.75;;;8.07;;
53052;SDS011;38934;52.690;6.184;2023-02-28T06:22:49;14.02;;;8.65;;
53052;SDS011;38934;52.690;6.184;2023-02-28T06:25:19;11.80;;;8.50;;
53052;SDS011;38934;52.690;6.184;2023-02-28T06:27:45;15.50;;;8.85;;
53052;SDS011;38934;52.690;6.184;2023-02-28T06:30:11;14.25;;;8.65;;
53052;SDS011;38934;52.690;6.184;2023-02-28T06:32:37;12.93;;;8.40;;
53052;SDS011;38934;52.690;6.184;2023-02-28T06:35:03;12.52;;;8.88;;
53052;SDS011;38934;52.690;6.184;2023-02-28T06:37:30;12.30;;;8.23;;
53052;SDS011;38934;52.690;6.184;2023-02-28T06:39:56;12.77;;;9.02;;
53052;SDS011;38934;52.690;6.184;2023-02-28T06:42:22;11.82;;;8.18;;
53052;SDS011;38934;52.690;6.184;2023-02-28T06:44:56;13.77;;;7.40;;
53052;SDS011;38934;52.690;6.184;2023-02-28T06:47:22;9.82;;;7.38;;
53052;SDS011;38934;52.690;6.184;2023-02-28T06:49:48;11.38;;;7.80;;
53052;SDS011;38934;52.690;6.184;2023-02-28T06:52:14;10.18;;;6.45;;
53052;SDS011;38934;52.690;6.184;2023-02-28T06:54:40;12.13;;;7.13;;
53052;SDS011;38934;52.690;6.184;2023-02-28T06:57:06;9.30;;;6.72;;
53052;SDS011;38934;52.690;6.184;2023-02-28T06:59:32;9.10;;;6.50;;
53052;SDS011;38934;52.690;6.184;2023-02-28T07:01:57;7.20;;;6.22;;
53052;SDS011;38934;52.690;6.184;2023-02-28T07:04:23;8.02;;;5.85;;
53052;SDS011;38934;52.690;6.184;2023-02-28T07:06:49;9.65;;;6.20;;
53052;SDS011;38934;52.690;6.184;2023-02-28T07:09:15;8.95;;;5.85;;
53052;SDS011;38934;52.690;6.184;2023-02-28T07:11:40;9.05;;;5.72;;
53052;SDS011;38934;52.690;6.184;2023-02-28T07:14:07;8.27;;;6.18;;
53052;SDS011;38934;52.690;6.184;2023-02-28T07:16:33;9.40;;;6.60;;
53052;SDS011;38934;52.690;6.184;2023-02-28T07:18:59;9.43;;;7.07;;
53052;SDS011;38934;52.690;6.184;2023-02-28T07:21:24;12.48;;;7.57;;
53052;SDS011;38934;52.690;6.184;2023-02-28T07:23:50;9.85;;;7.10;;
53052;SDS011;38934;52.690;6.184;2023-02-28T07:26:18;10.10;;;6.82;;
53052;SDS011;38934;52.690;6.184;2023-02-28T07:28:46;9.98;;;7.13;;
53052;SDS011;38934;52.690;6.184;2023-02-28T07:31:13;13.15;;;7.10;;
53052;SDS011;38934;52.690;6.184;2023-02-28T07:33:39;11.90;;;8.07;;
53052;SDS011;38934;52.690;6.184;2023-02-28T07:36:06;30.95;;;14.80;;
53052;SDS011;38934;52.690;6.184;2023-02-28T07:38:40;84.95;;;32.75;;
53052;SDS011;38934;52.690;6.184;2023-02-28T07:41:11;87.47;;;33.45;;
53052;SDS011;38934;52.690;6.184;2023-02-28T07:43:37;83.03;;;31.05;;
53052;SDS011;38934;52.690;6.184;2023-02-28T07:46:07;76.00;;;30.27;;
53052;SDS011;38934;52.690;6.184;2023-02-28T07:48:34;57.97;;;26.80;;
53052;SDS011;38934;52.690;6.184;2023-02-28T07:51:00;38.08;;;16.48;;
53052;SDS011;38934;52.690;6.184;2023-02-28T07:53:26;43.05;;;17.50;;
53052;SDS011;38934;52.690;6.184;2023-02-28T07:55:59;32.90;;;15.50;;
53052;SDS011;38934;52.690;6.184;2023-02-28T07:58:26;30.70;;;15.50;;
53052;SDS011;38934;52.690;6.184;2023-02-28T08:00:52;18.50;;;11.85;;
53052;SDS011;38934;52.690;6.184;2023-02-28T08:03:18;27.30;;;14.20;;
53052;SDS011;38934;52.690;6.184;2023-02-28T08:05:45;24.95;;;13.82;;
53052;SDS011;38934;52.690;6.184;2023-02-28T08:08:12;20.98;;;13.25;;
53052;SDS011;38934;52.690;6.184;2023-02-28T08:10:39;24.15;;;12.43;;
53052;SDS011;38934;52.690;6.184;2023-02-28T08:13:05;20.52;;;12.60;;
53052;SDS011;38934;52.690;6.184;2023-02-28T08:15:30;27.45;;;12.52;;
53052;SDS011;38934;52.690;6.184;2023-02-28T08:17:56;24.05;;;13.48;;
53052;SDS011;38934;52.690;6.184;2023-02-28T08:20:22;24.50;;;13.18;;
53052;SDS011;38934;52.690;6.184;2023-02-28T08:22:49;25.15;;;12.93;;
53052;SDS011;38934;52.690;6.184;2023-02-28T08:25:15;25.63;;;14.25;;
53052;SDS011;38934;52.690;6.184;2023-02-28T08:27:41;22.48;;;13.13;;
53052;SDS011;38934;52.690;6.184;2023-02-28T08:30:07;20.67;;;13.00;;
53052;SDS011;38934;52.690;6.184;2023-02-28T08:32:35;21.52;;;12.35;;
53052;SDS011;38934;52.690;6.184;2023-02-28T08:35:00;19.75;;;11.32;;
53052;SDS011;38934;52.690;6.184;2023-02-28T08:37:27;20.35;;;11.70;;
53052;SDS011;38934;52.690;6.184;2023-02-28T08:39:53;20.08;;;11.95;;
53052;SDS011;38934;52.690;6.184;2023-02-28T08:42:19;22.27;;;12.48;;
53052;SDS011;38934;52.690;6.184;2023-02-28T08:44:45;20.55;;;13.23;;
53052;SDS011;38934;52.690;6.184;2023-02-28T08:47:10;22.33;;;13.02;;
53052;SDS011;38934;52.690;6.184;2023-02-28T08:49:36;19.92;;;12.77;;
53052;SDS011;38934;52.690;6.184;2023-02-28T08:52:02;20.30;;;12.27;;
53052;SDS011;38934;52.690;6.184;2023-02-28T08:54:28;21.58;;;14.18;;
53052;SDS011;38934;52.690;6.184;2023-02-28T08:56:56;18.70;;;12.45;;
53052;SDS011;38934;52.690;6.184;2023-02-28T08:59:22;22.45;;;12.73;;
53052;SDS011;38934;52.690;6.184;2023-02-28T09:01:47;18.80;;;11.07;;
53052;SDS011;38934;52.690;6.184;2023-02-28T09:04:13;14.77;;;8.70;;
53052;SDS011;38934;52.690;6.184;2023-02-28T09:06:39;11.20;;;7.43;;
53052;SDS011;38934;52.690;6.184;2023-02-28T09:09:04;11.18;;;7.75;;
53052;SDS011;38934;52.690;6.184;2023-02-28T09:11:32;11.82;;;7.07;;
53052;SDS011;38934;52.690;6.184;2023-02-28T09:13:59;8.60;;;5.47;;
53052;SDS011;38934;52.690;6.184;2023-02-28T09:16:25;8.65;;;5.55;;
53052;SDS011;38934;52.690;6.184;2023-02-28T09:18:51;11.50;;;6.53;;
53052;SDS011;38934;52.690;6.184;2023-02-28T09:21:17;8.93;;;6.53;;
53052;SDS011;38934;52.690;6.184;2023-02-28T09:23:44;8.80;;;5.72;;
53052;SDS011;38934;52.690;6.184;2023-02-28T09:26:15;10.77;;;6.10;;
53052;SDS011;38934;52.690;6.184;2023-02-28T09:28:42;8.57;;;6.28;;
53052;SDS011;38934;52.690;6.184;2023-02-28T09:31:15;7.25;;;6.13;;
53052;SDS011;38934;52.690;6.184;2023-02-28T09:33:46;8.93;;;6.13;;
53052;SDS011;38934;52.690;6.184;2023-02-28T09:36:16;9.00;;;6.30;;
53052;SDS011;38934;52.690;6.184;2023-02-28T09:38:42;7.35;;;6.32;;
53052;SDS011;38934;52.690;6.184;2023-02-28T09:41:19;7.82;;;6.10;;
53052;SDS011;38934;52.690;6.184;2023-02-28T09:43:50;10.05;;;6.43;;
53052;SDS011;38934;52.690;6.184;2023-02-28T09:48:58;8.82;;;6.25;;
53052;SDS011;38934;52.690;6.184;2023-02-28T09:54:13;7.43;;;5.88;;
53052;SDS011;38934;52.690;6.184;2023-02-28T09:56:45;6.93;;;5.50;;
53052;SDS011;38934;52.690;6.184;2023-02-28T09:59:33;7.20;;;5.60;;
53052;SDS011;38934;52.690;6.184;2023-02-28T10:07:49;5.65;;;4.35;;
53052;SDS011;38934;52.690;6.184;2023-02-28T10:13:06;6.75;;;5.05;;
53052;SDS011;38934;52.690;6.184;2023-02-28T10:15:41;6.25;;;4.95;;
53052;SDS011;38934;52.690;6.184;2023-02-28T10:18:13;6.60;;;5.28;;
53052;SDS011;38934;52.690;6.184;2023-02-28T10:20:45;6.57;;;4.60;;
53052;SDS011;38934;52.690;6.184;2023-02-28T10:23:13;8.38;;;5.10;;
53052;SDS011;38934;52.690;6.184;2023-02-28T10:25:47;7.18;;;4.90;;
53052;SDS011;38934;52.690;6.184;2023-02-28T10:28:19;5.78;;;4.60;;
53052;SDS011;38934;52.690;6.184;2023-02-28T10:30:49;9.45;;;5.03;;
53052;SDS011;38934;52.690;6.184;2023-02-28T10:33:21;6.47;;;4.90;;
53052;SDS011;38934;52.690;6.184;2023-02-28T10:35:59;8.98;;;5.38;;
53052;SDS011;38934;52.690;6.184;2023-02-28T10:38:33;7.18;;;4.70;;
53052;SDS011;38934;52.690;6.184;2023-02-28T10:41:04;7.93;;;5.45;;
53052;SDS011;38934;52.690;6.184;2023-02-28T10:43:29;5.95;;;4.82;;
53052;SDS011;38934;52.690;6.184;2023-02-28T10:48:30;4.35;;;3.65;;
53052;SDS011;38934;52.690;6.184;2023-02-28T10:51:05;4.20;;;3.15;;
53052;SDS011;38934;52.690;6.184;2023-02-28T10:53:34;5.10;;;3.40;;
53052;SDS011;38934;52.690;6.184;2023-02-28T11:04:16;5.05;;;4.00;;
53052;SDS011;38934;52.690;6.184;2023-02-28T11:06:42;5.57;;;4.15;;
53052;SDS011;38934;52.690;6.184;2023-02-28T11:09:50;5.40;;;3.85;;
53052;SDS011;38934;52.690;6.184;2023-02-28T11:12:05;4.72;;;3.63;;
53052;SDS011;38934;52.690;6.184;2023-02-28T11:14:54;4.07;;;3.30;;
53052;SDS011;38934;52.690;6.184;2023-02-28T11:17:24;4.57;;;3.28;;
53052;SDS011;38934;52.690;6.184;2023-02-28T11:20:04;3.60;;;2.90;;
53052;SDS011;38934;52.690;6.184;2023-02-28T11:22:37;5.22;;;3.30;;
53052;SDS011;38934;52.690;6.184;2023-02-28T11:25:09;3.83;;;3.42;;
53052;SDS011;38934;52.690;6.184;2023-02-28T11:28:01;4.63;;;3.35;;
53052;SDS011;38934;52.690;6.184;2023-02-28T11:36:00;3.78;;;3.35;;
53052;SDS011;38934;52.690;6.184;2023-02-28T11:38:29;3.67;;;3.30;;
53052;SDS011;38934;52.690;6.184;2023-02-28T11:41:22;3.95;;;3.00;;
53052;SDS011;38934;52.690;6.184;2023-02-28T11:43:59;3.17;;;2.88;;
53052;SDS011;38934;52.690;6.184;2023-02-28T11:46:38;5.15;;;3.60;;
53052;SDS011;38934;52.690;6.184;2023-02-28T11:51:49;4.45;;;3.10;;
53052;SDS011;38934;52.690;6.184;2023-02-28T11:57:34;3.92;;;3.30;;
53052;SDS011;38934;52.690;6.184;2023-02-28T12:02:38;3.92;;;3.30;;
53052;SDS011;38934;52.690;6.184;2023-02-28T12:11:38;5.40;;;3.40;;
53052;SDS011;38934;52.690;6.184;2023-02-28T12:17:13;4.55;;;3.15;;
53052;SDS011;38934;52.690;6.184;2023-02-28T12:19:48;4.93;;;3.20;;
53052;SDS011;38934;52.690;6.184;2023-02-28T12:22:31;5.57;;;3.10;;
53052;SDS011;38934;52.690;6.184;2023-02-28T12:27:32;5.25;;;3.55;;
53052;SDS011;38934;52.690;6.184;2023-02-28T12:30:03;6.07;;;3.40;;
53052;SDS011;38934;52.690;6.184;2023-02-28T12:32:39;4.20;;;3.20;;
53052;SDS011;38934;52.690;6.184;2023-02-28T12:40:13;3.17;;;2.78;;
53052;SDS011;38934;52.690;6.184;2023-02-28T12:42:49;3.92;;;2.70;;
53052;SDS011;38934;52.690;6.184;2023-02-28T12:45:25;3.20;;;2.83;;
53052;SDS011;38934;52.690;6.184;2023-02-28T12:48:04;3.55;;;2.65;;
53052;SDS011;38934;52.690;6.184;2023-02-28T12:50:33;3.78;;;2.80;;
53052;SDS011;38934;52.690;6.184;2023-02-28T13:01:36;3.78;;;2.83;;
53052;SDS011;38934;52.690;6.184;2023-02-28T13:04:14;3.53;;;3.05;;
53052;SDS011;38934;52.690;6.184;2023-02-28T13:06:59;4.88;;;3.20;;
53052;SDS011;38934;52.690;6.184;2023-02-28T13:09:51;3.33;;;2.92;;
53052;SDS011;38934;52.690;6.184;2023-02-28T13:12:21;5.18;;;2.80;;
53052;SDS011;38934;52.690;6.184;2023-02-28T13:14:48;4.68;;;2.90;;
53052;SDS011;38934;52.690;6.184;2023-02-28T13:17:18;5.88;;;2.83;;
53052;SDS011;38934;52.690;6.184;2023-02-28T13:19:55;4.43;;;3.00;;
53052;SDS011;38934;52.690;6.184;2023-02-28T13:24:51;3.10;;;2.80;;
53052;SDS011;38934;52.690;6.184;2023-02-28T13:27:22;3.38;;;2.53;;
53052;SDS011;38934;52.690;6.184;2023-02-28T13:29:49;3.85;;;3.05;;
53052;SDS011;38934;52.690;6.184;2023-02-28T13:39:58;3.38;;;2.83;;
53052;SDS011;38934;52.690;6.184;2023-02-28T13:42:36;3.33;;;2.65;;
53052;SDS011;38934;52.690;6.184;2023-02-28T13:47:51;4.38;;;2.80;;
53052;SDS011;38934;52.690;6.184;2023-02-28T13:56:09;3.53;;;3.03;;
53052;SDS011;38934;52.690;6.184;2023-02-28T13:59:25;2.92;;;2.60;;
53052;SDS011;38934;52.690;6.184;2023-02-28T14:04:40;3.38;;;3.00;;
53052;SDS011;38934;52.690;6.184;2023-02-28T14:07:16;4.50;;;2.90;;
53052;SDS011;38934;52.690;6.184;2023-02-28T14:09:46;3.60;;;2.90;;
53052;SDS011;38934;52.690;6.184;2023-02-28T14:15:26;3.95;;;3.22;;
53052;SDS011;38934;52.690;6.184;2023-02-28T14:18:03;3.40;;;2.85;;
53052;SDS011;38934;52.690;6.184;2023-02-28T14:20:52;5.60;;;3.22;;
53052;SDS011;38934;52.690;6.184;2023-02-28T14:31:42;5.22;;;3.50;;
53052;SDS011;38934;52.690;6.184;2023-02-28T14:36:57;3.55;;;3.17;;
53052;SDS011;38934;52.690;6.184;2023-02-28T14:39:25;4.03;;;3.30;;
53052;SDS011;38934;52.690;6.184;2023-02-28T14:41:52;4.63;;;2.92;;
53052;SDS011;38934;52.690;6.184;2023-02-28T14:44:19;4.57;;;3.30;;
53052;SDS011;38934;52.690;6.184;2023-02-28T14:46:50;5.30;;;2.88;;
53052;SDS011;38934;52.690;6.184;2023-02-28T14:49:20;3.90;;;3.13;;
53052;SDS011;38934;52.690;6.184;2023-02-28T14:51:47;3.95;;;3.13;;
53052;SDS011;38934;52.690;6.184;2023-02-28T14:54:15;5.75;;;3.40;;
53052;SDS011;38934;52.690;6.184;2023-02-28T14:56:42;4.03;;;3.33;;
53052;SDS011;38934;52.690;6.184;2023-02-28T14:59:22;4.38;;;3.20;;
53052;SDS011;38934;52.690;6.184;2023-02-28T15:01:48;5.82;;;4.15;;
53052;SDS011;38934;52.690;6.184;2023-02-28T15:04:18;6.40;;;3.80;;
53052;SDS011;38934;52.690;6.184;2023-02-28T15:07:09;4.32;;;3.47;;
53052;SDS011;38934;52.690;6.184;2023-02-28T15:09:39;3.67;;;2.85;;
53052;SDS011;38934;52.690;6.184;2023-02-28T15:12:05;5.22;;;3.25;;
53052;SDS011;38934;52.690;6.184;2023-02-28T15:14:31;4.88;;;3.22;;
53052;SDS011;38934;52.690;6.184;2023-02-28T15:17:02;3.42;;;3.08;;
53052;SDS011;38934;52.690;6.184;2023-02-28T15:19:34;4.75;;;3.17;;
53052;SDS011;38934;52.690;6.184;2023-02-28T15:22:05;4.78;;;3.70;;
53052;SDS011;38934;52.690;6.184;2023-02-28T15:24:38;4.72;;;3.25;;
53052;SDS011;38934;52.690;6.184;2023-02-28T15:29:56;3.90;;;3.03;;
53052;SDS011;38934;52.690;6.184;2023-02-28T15:32:36;4.20;;;3.10;;
53052;SDS011;38934;52.690;6.184;2023-02-28T15:40:37;4.38;;;3.70;;
53052;SDS011;38934;52.690;6.184;2023-02-28T15:43:07;5.50;;;3.45;;
53052;SDS011;38934;52.690;6.184;2023-02-28T15:48:16;5.35;;;3.67;;
53052;SDS011;38934;52.690;6.184;2023-02-28T15:50:51;4.65;;;3.50;;
53052;SDS011;38934;52.690;6.184;2023-02-28T15:53:23;5.03;;;3.60;;
53052;SDS011;38934;52.690;6.184;2023-02-28T15:55:54;6.05;;;3.88;;
53052;SDS011;38934;52.690;6.184;2023-02-28T15:58:22;3.90;;;3.38;;
53052;SDS011;38934;52.690;6.184;2023-02-28T16:01:36;4.78;;;3.60;;
53052;SDS011;38934;52.690;6.184;2023-02-28T16:03:49;4.38;;;3.33;;
53052;SDS011;38934;52.690;6.184;2023-02-28T16:08:51;4.50;;;3.90;;
53052;SDS011;38934;52.690;6.184;2023-02-28T16:11:18;6.55;;;4.15;;
53052;SDS011;38934;52.690;6.184;2023-02-28T16:13:45;4.47;;;3.95;;
53052;SDS011;38934;52.690;6.184;2023-02-28T16:16:15;5.53;;;4.38;;
53052;SDS011;38934;52.690;6.184;2023-02-28T16:18:45;5.22;;;4.00;;
53052;SDS011;38934;52.690;6.184;2023-02-28T16:21:17;7.57;;;4.57;;
53052;SDS011;38934;52.690;6.184;2023-02-28T16:23:42;5.70;;;4.00;;
53052;SDS011;38934;52.690;6.184;2023-02-28T16:26:08;6.63;;;4.53;;
53052;SDS011;38934;52.690;6.184;2023-02-28T16:28:49;5.82;;;4.50;;
53052;SDS011;38934;52.690;6.184;2023-02-28T16:31:15;5.80;;;4.60;;
53052;SDS011;38934;52.690;6.184;2023-02-28T16:33:42;6.60;;;4.65;;
53052;SDS011;38934;52.690;6.184;2023-02-28T16:36:12;5.15;;;4.13;;
53052;SDS011;38934;52.690;6.184;2023-02-28T16:38:39;7.88;;;4.70;;
53052;SDS011;38934;52.690;6.184;2023-02-28T16:41:05;5.45;;;4.72;;
53052;SDS011;38934;52.690;6.184;2023-02-28T16:43:31;6.38;;;5.15;;
53052;SDS011;38934;52.690;6.184;2023-02-28T16:45:57;6.22;;;5.10;;
53052;SDS011;38934;52.690;6.184;2023-02-28T16:48:23;7.53;;;5.50;;
53052;SDS011;38934;52.690;6.184;2023-02-28T16:50:50;5.97;;;5.25;;
53052;SDS011;38934;52.690;6.184;2023-02-28T16:53:15;8.13;;;5.50;;
53052;SDS011;38934;52.690;6.184;2023-02-28T16:55:41;6.53;;;5.72;;
53052;SDS011;38934;52.690;6.184;2023-02-28T16:58:10;6.88;;;5.60;;
53052;SDS011;38934;52.690;6.184;2023-02-28T17:00:39;9.40;;;6.03;;
53052;SDS011;38934;52.690;6.184;2023-02-28T17:03:07;8.90;;;5.93;;
53052;SDS011;38934;52.690;6.184;2023-02-28T17:05:44;7.47;;;6.30;;
53052;SDS011;38934;52.690;6.184;2023-02-28T17:08:10;8.68;;;7.10;;
53052;SDS011;38934;52.690;6.184;2023-02-28T17:10:36;9.98;;;6.68;;
53052;SDS011;38934;52.690;6.184;2023-02-28T17:13:01;7.57;;;6.22;;
53052;SDS011;38934;52.690;6.184;2023-02-28T17:15:27;8.25;;;6.78;;
53052;SDS011;38934;52.690;6.184;2023-02-28T17:17:53;8.75;;;6.55;;
53052;SDS011;38934;52.690;6.184;2023-02-28T17:20:20;8.55;;;6.28;;
53052;SDS011;38934;52.690;6.184;2023-02-28T17:22:51;9.75;;;6.90;;
53052;SDS011;38934;52.690;6.184;2023-02-28T17:25:18;9.10;;;6.50;;
53052;SDS011;38934;52.690;6.184;2023-02-28T17:27:44;10.68;;;6.95;;
53052;SDS011;38934;52.690;6.184;2023-02-28T17:30:14;9.13;;;6.80;;
53052;SDS011;38934;52.690;6.184;2023-02-28T17:32:45;9.70;;;6.65;;
53052;SDS011;38934;52.690;6.184;2023-02-28T17:35:11;10.30;;;6.68;;